Time;durP1;ratioP1;P1;durP2;ratioP2;P2;SDS_P1;SDS_P2;PMS_P1;PMS_P2;Temp;Humidity;BMP_temperature;BMP_pressure;BME280_temperature;BME280_humidity;BME280_pressure;Samples;Min_cycle;Max_cycle;Signal;HPM_P1;HPM_P2
2023/02/17 00:01:00;;;;;;;3.63;1.20;;;;;;;;;;5124982;27;20059;-69
2023/02/17 00:03:28;;;;;;;2.40;1.63;;;;;;;;;;5128122;27;20039;-70
2023/02/17 00:05:56;;;;;;;2.45;1.27;;;;;;;;;;5121266;27;20035;-69
2023/02/17 00:08:25;;;;;;;2.20;1.08;;;;;;;;;;5121599;27;20043;-69
2023/02/17 00:10:57;;;;;;;2.25;1.15;;;;;;;;;;5113287;27;20048;-69
2023/02/17 00:13:27;;;;;;;5.63;1.38;;;;;;;;;;5123732;27;20045;-69
2023/02/17 00:15:55;;;;;;;2.78;1.48;;;;;;;;;;5121896;27;20872;-69
2023/02/17 00:18:23;;;;;;;2.03;1.27;;;;;;;;;;5130060;27;20564;-70
2023/02/17 00:20:52;;;;;;;1.33;0.65;;;;;;;;;;5126688;27;20047;-70
2023/02/17 00:23:20;;;;;;;4.20;1.38;;;;;;;;;;5127431;27;20487;-68
2023/02/17 00:25:48;;;;;;;1.67;0.90;;;;;;;;;;5128258;27;20050;-69
2023/02/17 00:28:16;;;;;;;4.65;1.50;;;;;;;;;;5121275;27;20397;-69
2023/02/17 00:30:46;;;;;;;1.30;0.68;;;;;;;;;;5117796;27;20054;-70
2023/02/17 00:33:14;;;;;;;4.10;0.95;;;;;;;;;;5129457;27;20109;-69
2023/02/17 00:35:43;;;;;;;1.33;0.90;;;;;;;;;;5130381;27;20066;-69
2023/02/17 00:38:11;;;;;;;1.48;1.02;;;;;;;;;;5128794;27;20057;-69
2023/02/17 00:40:40;;;;;;;0.88;0.80;;;;;;;;;;5128987;27;20051;-70
2023/02/17 00:43:08;;;;;;;1.80;1.10;;;;;;;;;;5114957;27;20087;-69
2023/02/17 00:45:37;;;;;;;2.40;1.08;;;;;;;;;;5125039;27;20373;-69
2023/02/17 00:48:06;;;;;;;0.90;0.73;;;;;;;;;;5122822;27;20059;-69
2023/02/17 00:50:34;;;;;;;2.38;1.25;;;;;;;;;;5128306;27;20054;-69
2023/02/17 00:53:03;;;;;;;2.25;0.60;;;;;;;;;;5120527;27;20093;-70
2023/02/17 00:55:31;;;;;;;1.75;0.73;;;;;;;;;;5127584;27;20043;-69
2023/02/17 00:57:59;;;;;;;2.28;0.88;;;;;;;;;;5124965;27;20055;-69
2023/02/17 01:00:27;;;;;;;2.15;1.50;;;;;;;;;;5118617;28;20054;-69
2023/02/17 01:02:56;;;;;;;1.65;0.98;;;;;;;;;;5129280;27;20051;-69
2023/02/17 01:05:25;;;;;;;1.13;1.02;;;;;;;;;;5125425;28;20058;-69
2023/02/17 01:07:53;;;;;;;4.10;1.02;;;;;;;;;;5126565;28;20050;-69
2023/02/17 01:10:22;;;;;;;3.70;1.48;;;;;;;;;;5126132;27;20051;-69
2023/02/17 01:12:50;;;;;;;3.13;0.70;;;;;;;;;;5125420;27;20396;-69
2023/02/17 01:15:18;;;;;;;1.67;0.80;;;;;;;;;;5127395;27;20488;-69
2023/02/17 01:17:47;;;;;;;1.95;0.90;;;;;;;;;;5123715;28;20060;-69
2023/02/17 01:20:15;;;;;;;3.42;0.95;;;;;;;;;;5127851;27;20051;-70
2023/02/17 01:22:45;;;;;;;2.45;1.20;;;;;;;;;;5124804;28;20055;-70
2023/02/17 01:25:13;;;;;;;2.63;1.60;;;;;;;;;;5125730;28;20051;-70
2023/02/17 01:27:41;;;;;;;3.90;1.27;;;;;;;;;;5131733;27;20047;-70
2023/02/17 01:30:10;;;;;;;3.35;1.23;;;;;;;;;;5128314;27;20546;-69
2023/02/17 01:32:38;;;;;;;4.53;1.63;;;;;;;;;;5129222;27;20049;-69
2023/02/17 01:35:07;;;;;;;2.25;1.08;;;;;;;;;;5127176;28;20039;-69
2023/02/17 01:37:35;;;;;;;7.38;1.40;;;;;;;;;;5124929;27;20055;-70
2023/02/17 01:40:05;;;;;;;2.88;1.05;;;;;;;;;;5127863;27;20054;-70
2023/02/17 01:42:33;;;;;;;3.10;0.73;;;;;;;;;;5124517;27;20407;-70
2023/02/17 01:45:20;;;;;;;2.35;1.38;;;;;;;;;;5118001;27;20048;-70
2023/02/17 01:47:50;;;;;;;2.53;0.65;;;;;;;;;;5123132;28;20047;-69
2023/02/17 01:50:21;;;;;;;1.95;1.17;;;;;;;;;;5119548;28;20058;-69
2023/02/17 01:52:50;;;;;;;6.13;1.15;;;;;;;;;;5119369;27;20039;-69
2023/02/17 01:55:20;;;;;;;3.50;1.00;;;;;;;;;;5121208;28;20043;-70
2023/02/17 01:57:49;;;;;;;1.20;0.88;;;;;;;;;;5127773;27;20066;-69
2023/02/17 02:00:19;;;;;;;3.88;1.10;;;;;;;;;;5124072;27;20058;-68
2023/02/17 02:02:49;;;;;;;2.72;1.73;;;;;;;;;;5121002;27;20130;-69
2023/02/17 02:05:18;;;;;;;12.30;1.17;;;;;;;;;;5127388;27;20039;-70
2023/02/17 02:13:10;;;;;;;2.38;1.05;;;;;;;;;;5441776;23;20137;-93
2023/02/17 02:15:41;;;;;;;1.20;0.90;;;;;;;;;;4962346;28;20050;-95
2023/02/17 02:18:13;;;;;;;1.52;1.13;;;;;;;;;;4976389;28;20530;-92
2023/02/17 02:20:50;;;;;;;7.28;1.35;;;;;;;;;;4978030;28;20038;-92
2023/02/17 02:23:36;;;;;;;2.80;1.60;;;;;;;;;;4975144;28;20061;-95
2023/02/17 02:26:25;;;;;;;2.58;1.85;;;;;;;;;;4966421;28;20102;-95
2023/02/17 02:29:04;;;;;;;3.55;1.17;;;;;;;;;;4954415;28;20050;-89
2023/02/17 02:31:38;;;;;;;3.38;0.70;;;;;;;;;;4974351;28;20053;-96
2023/02/17 02:34:09;;;;;;;1.42;0.90;;;;;;;;;;4975464;28;20046;-93
2023/02/17 02:36:39;;;;;;;7.72;1.00;;;;;;;;;;4986072;28;20043;-92
2023/02/17 02:39:10;;;;;;;2.38;1.05;;;;;;;;;;4988140;28;20051;-93
2023/02/17 02:41:41;;;;;;;1.05;0.88;;;;;;;;;;4985560;28;20059;-95
2023/02/17 02:44:11;;;;;;;3.45;1.23;;;;;;;;;;4976345;28;20055;-93
2023/02/17 02:46:39;;;;;;;2.63;1.02;;;;;;;;;;4974134;28;20457;-93
2023/02/17 02:49:09;;;;;;;6.05;1.80;;;;;;;;;;4969878;28;20366;-94
2023/02/17 02:51:43;;;;;;;5.13;1.45;;;;;;;;;;4970248;28;20058;-94
2023/02/17 02:54:24;;;;;;;1.33;1.00;;;;;;;;;;4971811;28;20054;-95
2023/02/17 02:56:58;;;;;;;2.92;0.93;;;;;;;;;;4970913;28;20055;-96
2023/02/17 02:59:34;;;;;;;5.70;2.05;;;;;;;;;;4966796;28;20051;-95
2023/02/17 03:02:07;;;;;;;1.15;1.05;;;;;;;;;;4965941;28;20496;-95
2023/02/17 03:04:39;;;;;;;6.43;1.60;;;;;;;;;;4973584;28;20050;-96
2023/02/17 03:07:09;;;;;;;1.33;1.02;;;;;;;;;;4973566;28;20057;-92
2023/02/17 03:09:37;;;;;;;2.58;1.30;;;;;;;;;;4970402;28;20061;-95
2023/02/17 03:12:06;;;;;;;2.47;1.00;;;;;;;;;;4975191;28;20058;-94
2023/02/17 03:14:37;;;;;;;1.73;0.77;;;;;;;;;;4990058;28;20045;-90
2023/02/17 03:17:05;;;;;;;1.83;1.23;;;;;;;;;;4992826;28;20062;-92
2023/02/17 03:19:33;;;;;;;1.88;0.70;;;;;;;;;;4991490;28;20100;-93
2023/02/17 03:22:08;;;;;;;2.53;1.42;;;;;;;;;;4990646;28;20050;-95
2023/02/17 03:24:36;;;;;;;2.65;0.95;;;;;;;;;;4994240;28;20057;-96
2023/02/17 03:27:04;;;;;;;1.30;0.90;;;;;;;;;;4992440;28;20054;-94
2023/02/17 03:29:33;;;;;;;2.88;1.00;;;;;;;;;;4994102;28;20492;-96
2023/02/17 03:32:01;;;;;;;3.88;0.70;;;;;;;;;;4992246;28;20043;-89
2023/02/17 03:34:29;;;;;;;0.82;0.80;;;;;;;;;;4992343;28;20150;-96
2023/02/17 03:36:58;;;;;;;3.03;1.23;;;;;;;;;;4991106;28;20423;-94
2023/02/17 03:39:27;;;;;;;0.85;0.85;;;;;;;;;;4989831;28;20530;-94
2023/02/17 03:41:55;;;;;;;4.65;1.48;;;;;;;;;;4990813;28;20042;-93
2023/02/17 03:44:24;;;;;;;4.05;1.20;;;;;;;;;;4989855;28;20054;-91
2023/02/17 03:46:52;;;;;;;7.15;1.10;;;;;;;;;;4984146;28;20077;-94
2023/02/17 03:49:20;;;;;;;2.20;1.10;;;;;;;;;;4988820;28;20438;-96
2023/02/17 03:51:49;;;;;;;0.85;0.57;;;;;;;;;;4983690;28;20399;-93
2023/02/17 03:54:17;;;;;;;1.52;0.80;;;;;;;;;;4993118;28;20054;-92
2023/02/17 03:56:47;;;;;;;3.47;1.23;;;;;;;;;;4990724;28;20073;-94
2023/02/17 03:59:15;;;;;;;3.88;1.08;;;;;;;;;;4990478;28;20057;-95
2023/02/17 04:01:43;;;;;;;1.55;0.65;;;;;;;;;;4990230;28;20050;-94
2023/02/17 04:04:11;;;;;;;0.30;0.30;;;;;;;;;;4991329;28;20058;-95
2023/02/17 04:06:40;;;;;;;1.77;1.30;;;;;;;;;;4989132;28;20050;-95
2023/02/17 04:09:08;;;;;;;0.55;0.55;;;;;;;;;;4985896;28;20053;-94
2023/02/17 04:11:36;;;;;;;1.30;0.93;;;;;;;;;;4989440;28;20062;-96
2023/02/17 04:14:06;;;;;;;1.92;0.77;;;;;;;;;;4992236;28;20062;-94
2023/02/17 04:16:34;;;;;;;1.15;0.73;;;;;;;;;;4989218;28;20046;-89
2023/02/17 04:19:03;;;;;;;3.83;1.23;;;;;;;;;;4992575;28;20079;-94
2023/02/17 04:21:31;;;;;;;2.35;0.65;;;;;;;;;;4993300;28;20042;-96
2023/02/17 04:24:00;;;;;;;3.20;1.15;;;;;;;;;;4993208;28;20050;-95
2023/02/17 04:26:29;;;;;;;1.55;0.77;;;;;;;;;;4991233;28;20480;-96
2023/02/17 04:28:57;;;;;;;0.50;0.50;;;;;;;;;;4989729;28;20431;-95
2023/02/17 04:31:27;;;;;;;2.70;0.98;;;;;;;;;;4988121;28;20046;-96
2023/02/17 04:33:55;;;;;;;0.90;0.52;;;;;;;;;;4993414;28;20125;-96
2023/02/17 04:36:25;;;;;;;1.67;1.05;;;;;;;;;;4990080;28;20050;-95
2023/02/17 04:38:53;;;;;;;5.68;1.77;;;;;;;;;;4988860;28;20057;-95
2023/02/17 04:41:21;;;;;;;2.35;0.77;;;;;;;;;;4996636;28;20050;-96
2023/02/17 04:43:49;;;;;;;2.90;1.13;;;;;;;;;;4990314;28;20038;-93
2023/02/17 04:46:18;;;;;;;0.80;0.75;;;;;;;;;;4990112;28;20061;-94
2023/02/17 04:48:48;;;;;;;4.03;0.50;;;;;;;;;;4991124;28;20470;-94
2023/02/17 04:51:16;;;;;;;3.15;1.25;;;;;;;;;;4989255;28;20484;-95
2023/02/17 04:53:44;;;;;;;3.50;1.35;;;;;;;;;;4985030;28;20388;-95
2023/02/17 04:56:13;;;;;;;2.10;0.47;;;;;;;;;;4992358;28;20050;-95
2023/02/17 04:58:41;;;;;;;6.40;0.55;;;;;;;;;;4992000;28;20062;-96
2023/02/17 05:01:09;;;;;;;3.33;0.80;;;;;;;;;;4989001;28;20046;-93
2023/02/17 05:03:38;;;;;;;1.75;1.25;;;;;;;;;;4990996;28;20129;-94
2023/02/17 05:06:07;;;;;;;4.45;0.77;;;;;;;;;;4989992;28;20047;-92
2023/02/17 05:08:36;;;;;;;1.30;0.70;;;;;;;;;;4988349;28;20061;-94
2023/02/17 05:11:04;;;;;;;0.65;0.40;;;;;;;;;;4981471;28;20046;-94
2023/02/17 05:13:33;;;;;;;3.13;0.90;;;;;;;;;;4990092;28;20054;-95
2023/02/17 05:16:01;;;;;;;1.38;0.60;;;;;;;;;;4983411;28;20133;-95
2023/02/17 05:18:30;;;;;;;1.48;0.60;;;;;;;;;;4977978;28;20178;-96
2023/02/17 05:20:58;;;;;;;0.68;0.68;;;;;;;;;;4992199;28;20054;-94
2023/02/17 05:23:28;;;;;;;5.15;0.88;;;;;;;;;;4984020;28;20096;-94
2023/02/17 05:25:56;;;;;;;4.05;0.90;;;;;;;;;;4982919;28;20463;-93
2023/02/17 05:28:24;;;;;;;5.85;1.15;;;;;;;;;;4989980;28;20065;-94
2023/02/17 05:30:52;;;;;;;1.08;0.80;;;;;;;;;;4989232;28;20050;-96
2023/02/17 05:33:22;;;;;;;0.88;0.60;;;;;;;;;;4992871;28;20054;-91
2023/02/17 05:35:50;;;;;;;1.60;0.73;;;;;;;;;;4988131;28;20051;-90
2023/02/17 05:38:19;;;;;;;0.73;0.55;;;;;;;;;;4983756;28;20141;-95
2023/02/17 05:40:50;;;;;;;1.65;0.90;;;;;;;;;;4996263;28;20446;-94
2023/02/17 05:43:18;;;;;;;2.55;1.10;;;;;;;;;;4999557;28;20069;-90
2023/02/17 05:45:47;;;;;;;2.25;0.75;;;;;;;;;;4989689;28;20054;-96
2023/02/17 05:48:15;;;;;;;2.75;0.75;;;;;;;;;;4988494;28;20054;-94
2023/02/17 05:50:43;;;;;;;1.05;0.60;;;;;;;;;;4990808;28;20046;-94
2023/02/17 05:53:12;;;;;;;1.50;0.80;;;;;;;;;;4988506;28;20049;-92
2023/02/17 05:55:40;;;;;;;4.13;0.65;;;;;;;;;;4992715;28;20054;-95
2023/02/17 05:58:10;;;;;;;0.75;0.73;;;;;;;;;;4994742;28;20064;-90
2023/02/17 06:00:38;;;;;;;1.15;1.00;;;;;;;;;;4996660;23;20050;-69
2023/02/17 06:03:06;;;;;;;1.98;0.70;;;;;;;;;;4993552;28;20057;-70
2023/02/17 06:05:34;;;;;;;5.28;1.75;;;;;;;;;;4983948;28;20074;-69
2023/02/17 06:08:03;;;;;;;4.93;0.40;;;;;;;;;;4993409;28;20057;-68
2023/02/17 06:10:31;;;;;;;5.82;0.88;;;;;;;;;;4980368;28;20060;-69
2023/02/17 06:12:59;;;;;;;1.65;0.90;;;;;;;;;;4975271;28;20054;-69
2023/02/17 06:15:29;;;;;;;2.72;1.33;;;;;;;;;;4975904;28;20059;-68
2023/02/17 06:17:58;;;;;;;0.50;0.50;;;;;;;;;;4982149;28;20061;-69
2023/02/17 06:20:26;;;;;;;1.02;0.60;;;;;;;;;;4961473;28;20063;-69
2023/02/17 06:22:54;;;;;;;2.75;0.63;;;;;;;;;;4961135;28;20053;-69
2023/02/17 06:25:22;;;;;;;0.80;0.50;;;;;;;;;;4967094;28;20073;-69
2023/02/17 06:27:51;;;;;;;1.30;0.80;;;;;;;;;;4968463;28;20073;-70
2023/02/17 06:30:20;;;;;;;0.70;0.45;;;;;;;;;;4965406;28;20055;-69
2023/02/17 06:32:49;;;;;;;5.68;1.05;;;;;;;;;;4966031;28;20047;-68
2023/02/17 06:35:18;;;;;;;3.33;0.75;;;;;;;;;;4959499;28;20061;-70
2023/02/17 06:37:46;;;;;;;1.85;0.80;;;;;;;;;;4964755;28;20055;-70
2023/02/17 06:40:15;;;;;;;2.10;0.90;;;;;;;;;;4972836;28;20061;-71
2023/02/17 06:42:43;;;;;;;2.75;0.88;;;;;;;;;;4968332;28;20448;-70
2023/02/17 06:45:11;;;;;;;2.08;1.48;;;;;;;;;;4967536;28;20062;-69
2023/02/17 06:47:40;;;;;;;0.50;0.50;;;;;;;;;;4967662;28;20134;-67
2023/02/17 06:50:10;;;;;;;3.85;1.15;;;;;;;;;;4971046;28;20140;-69
2023/02/17 06:52:38;;;;;;;1.25;0.73;;;;;;;;;;4984138;28;20110;-71
2023/02/17 06:55:07;;;;;;;0.40;0.40;;;;;;;;;;4964390;28;20051;-69
2023/02/17 06:57:35;;;;;;;2.63;1.65;;;;;;;;;;4960937;28;20062;-69
2023/02/17 07:00:05;;;;;;;2.92;1.33;;;;;;;;;;4970313;28;20086;-69
2023/02/17 07:02:33;;;;;;;4.70;1.85;;;;;;;;;;4986244;28;20078;-70
2023/02/17 07:05:02;;;;;;;4.22;1.35;;;;;;;;;;4987944;28;20065;-70
2023/02/17 07:07:31;;;;;;;0.30;0.30;;;;;;;;;;4990935;28;20046;-70
2023/02/17 07:09:59;;;;;;;0.47;0.38;;;;;;;;;;4985732;28;20368;-70
2023/02/17 07:12:28;;;;;;;1.65;1.15;;;;;;;;;;4996105;28;20502;-70
2023/02/17 07:14:56;;;;;;;1.63;0.80;;;;;;;;;;5003878;28;20043;-69
2023/02/17 07:17:25;;;;;;;2.28;0.40;;;;;;;;;;4993660;28;20128;-70
2023/02/17 07:19:53;;;;;;;1.77;0.90;;;;;;;;;;4992537;28;20050;-69
2023/02/17 07:22:24;;;;;;;0.40;0.38;;;;;;;;;;5009262;28;20050;-68
2023/02/17 07:24:54;;;;;;;0.50;0.50;;;;;;;;;;4994301;28;20131;-70
2023/02/17 07:27:22;;;;;;;8.88;0.95;;;;;;;;;;4994484;28;20554;-69
2023/02/17 07:29:51;;;;;;;2.47;1.20;;;;;;;;;;4996959;28;20491;-69
2023/02/17 07:32:19;;;;;;;0.45;0.30;;;;;;;;;;4999277;28;20399;-70
2023/02/17 07:34:47;;;;;;;13.43;0.82;;;;;;;;;;5003034;28;20073;-70
2023/02/17 07:37:16;;;;;;;1.40;1.00;;;;;;;;;;4987690;28;20050;-70
2023/02/17 07:39:44;;;;;;;3.20;0.50;;;;;;;;;;4991330;28;20075;-69
2023/02/17 07:42:14;;;;;;;0.85;0.57;;;;;;;;;;4987258;28;20058;-70
2023/02/17 07:44:42;;;;;;;4.45;2.88;;;;;;;;;;4993531;28;20056;-70
2023/02/17 07:47:11;;;;;;;4.88;0.93;;;;;;;;;;4998124;28;20096;-70
2023/02/17 07:49:39;;;;;;;0.40;0.40;;;;;;;;;;5005360;28;20487;-71
2023/02/17 07:52:08;;;;;;;2.38;1.73;;;;;;;;;;4990650;28;20304;-70
2023/02/17 07:54:36;;;;;;;7.95;1.10;;;;;;;;;;5001231;28;20085;-70
2023/02/17 07:57:05;;;;;;;0.85;0.50;;;;;;;;;;4993581;28;20051;-71
2023/02/17 07:59:34;;;;;;;5.78;0.50;;;;;;;;;;4990992;28;20046;-70
2023/02/17 08:02:04;;;;;;;1.38;0.40;;;;;;;;;;4988038;28;20085;-71
2023/02/17 08:04:32;;;;;;;7.82;0.93;;;;;;;;;;4995266;28;20046;-71
2023/02/17 08:07:01;;;;;;;3.17;1.73;;;;;;;;;;4996369;28;20566;-71
2023/02/17 08:15:06;;;;;;;1.45;0.70;;;;;;;;;;4992535;28;20050;-69
2023/02/17 08:17:34;;;;;;;1.63;1.17;;;;;;;;;;4997329;28;20477;-70
2023/02/17 08:20:03;;;;;;;0.40;0.40;;;;;;;;;;5005808;28;20077;-69
2023/02/17 08:22:36;;;;;;;2.15;1.58;;;;;;;;;;4990979;28;20140;-71
2023/02/17 08:25:05;;;;;;;0.25;0.25;;;;;;;;;;4982970;28;20501;-71
2023/02/17 08:27:33;;;;;;;4.32;1.35;;;;;;;;;;4984254;28;20054;-71
2023/02/17 08:30:02;;;;;;;1.23;0.70;;;;;;;;;;4989148;28;20065;-71
2023/02/17 08:32:32;;;;;;;9.18;0.90;;;;;;;;;;4989709;28;20049;-72
2023/02/17 08:35:00;;;;;;;2.25;1.25;;;;;;;;;;5010064;28;20093;-67
2023/02/17 08:37:30;;;;;;;2.25;0.80;;;;;;;;;;4984755;28;20046;-69
2023/02/17 08:39:59;;;;;;;0.98;0.40;;;;;;;;;;4993033;28;20042;-71
2023/02/17 08:42:29;;;;;;;1.70;0.80;;;;;;;;;;4989841;28;20046;-70
2023/02/17 08:44:57;;;;;;;0.65;0.55;;;;;;;;;;4987104;28;20050;-70
2023/02/17 08:47:28;;;;;;;10.98;1.55;;;;;;;;;;4985110;28;20121;-70
2023/02/17 08:49:58;;;;;;;1.08;0.50;;;;;;;;;;4987797;28;20444;-71
2023/02/17 08:52:27;;;;;;;3.83;0.65;;;;;;;;;;4985169;28;20068;-70
2023/02/17 08:54:55;;;;;;;7.55;2.70;;;;;;;;;;4980713;28;20057;-70
2023/02/17 08:57:25;;;;;;;0.98;0.88;;;;;;;;;;4989349;28;20164;-71
2023/02/17 08:59:54;;;;;;;0.30;0.30;;;;;;;;;;4997229;28;20162;-69
2023/02/17 09:02:22;;;;;;;1.67;0.63;;;;;;;;;;4988695;28;20050;-70
2023/02/17 09:04:51;;;;;;;1.35;0.70;;;;;;;;;;4979439;28;20455;-76
2023/02/17 09:07:21;;;;;;;2.22;0.63;;;;;;;;;;5001832;28;20057;-75
2023/02/17 09:09:50;;;;;;;0.80;0.80;;;;;;;;;;4990816;28;20413;-76
2023/02/17 09:12:18;;;;;;;2.13;1.23;;;;;;;;;;5005428;28;20057;-76
2023/02/17 09:14:47;;;;;;;1.70;0.63;;;;;;;;;;4995345;28;20042;-74
2023/02/17 09:17:16;;;;;;;0.75;0.60;;;;;;;;;;5001540;28;20054;-76
2023/02/17 09:19:44;;;;;;;13.73;1.20;;;;;;;;;;4996090;28;20049;-74
2023/02/17 09:22:13;;;;;;;4.32;2.38;;;;;;;;;;5002090;28;20503;-74
2023/02/17 09:24:59;;;;;;;2.00;1.15;;;;;;;;;;4988280;28;20056;-73
2023/02/17 09:27:28;;;;;;;1.58;0.85;;;;;;;;;;5008528;28;20042;-77
2023/02/17 09:29:57;;;;;;;2.38;0.90;;;;;;;;;;4995034;28;20049;-76
2023/02/17 09:32:25;;;;;;;0.63;0.60;;;;;;;;;;5001890;28;20054;-75
2023/02/17 09:34:54;;;;;;;1.75;0.65;;;;;;;;;;5014393;28;20049;-74
2023/02/17 09:37:23;;;;;;;0.95;0.88;;;;;;;;;;4999013;28;20058;-76
2023/02/17 09:39:52;;;;;;;1.17;0.70;;;;;;;;;;5010519;28;20114;-74
2023/02/17 09:42:23;;;;;;;0.40;0.40;;;;;;;;;;4992696;28;20111;-73
2023/02/17 09:44:53;;;;;;;1.00;0.80;;;;;;;;;;4991059;28;20105;-72
2023/02/17 09:47:24;;;;;;;2.55;0.90;;;;;;;;;;5002763;28;20077;-76
2023/02/17 09:49:55;;;;;;;3.05;0.80;;;;;;;;;;5005713;28;20062;-74
2023/02/17 09:52:27;;;;;;;0.65;0.35;;;;;;;;;;5007095;28;20113;-76
2023/02/17 09:55:00;;;;;;;1.83;0.73;;;;;;;;;;5001756;28;20062;-77
2023/02/17 09:57:33;;;;;;;0.98;0.65;;;;;;;;;;5002783;28;20054;-75
2023/02/17 10:00:04;;;;;;;0.52;0.43;;;;;;;;;;5007498;28;20158;-75
2023/02/17 10:02:34;;;;;;;15.43;0.70;;;;;;;;;;4990899;28;20082;-74
2023/02/17 10:05:06;;;;;;;0.88;0.52;;;;;;;;;;5002162;28;20561;-71
2023/02/17 10:07:37;;;;;;;1.25;0.95;;;;;;;;;;4996484;28;20126;-76
2023/02/17 10:10:08;;;;;;;0.50;0.50;;;;;;;;;;5010883;28;20132;-74
2023/02/17 10:12:40;;;;;;;2.30;0.50;;;;;;;;;;5013074;28;20053;-77
2023/02/17 10:15:10;;;;;;;1.88;0.60;;;;;;;;;;4991398;28;20141;-75
2023/02/17 10:17:43;;;;;;;2.38;0.73;;;;;;;;;;4992314;28;20487;-75
2023/02/17 10:20:13;;;;;;;0.90;0.55;;;;;;;;;;5009915;28;20050;-77
2023/02/17 10:22:44;;;;;;;0.95;0.85;;;;;;;;;;5013506;28;20064;-73
2023/02/17 10:25:15;;;;;;;1.73;0.95;;;;;;;;;;4996204;28;20053;-77
2023/02/17 10:27:47;;;;;;;1.10;0.65;;;;;;;;;;4993188;28;20108;-74
2023/02/17 10:30:23;;;;;;;2.22;0.70;;;;;;;;;;5006708;28;20129;-75
2023/02/17 10:33:00;;;;;;;0.57;0.52;;;;;;;;;;5008357;28;20541;-75
2023/02/17 10:35:37;;;;;;;2.58;1.13;;;;;;;;;;5006169;28;20046;-76
2023/02/17 10:38:11;;;;;;;2.47;0.60;;;;;;;;;;4996672;28;20105;-76
2023/02/17 10:40:40;;;;;;;1.83;0.85;;;;;;;;;;4977160;28;20062;-77
2023/02/17 10:43:11;;;;;;;1.27;0.55;;;;;;;;;;4984205;28;20074;-74
2023/02/17 10:45:42;;;;;;;0.50;0.50;;;;;;;;;;4994127;28;20448;-74
2023/02/17 10:48:14;;;;;;;3.88;1.05;;;;;;;;;;4988943;28;20495;-74
2023/02/17 10:50:43;;;;;;;0.80;0.70;;;;;;;;;;4990767;28;20319;-74
2023/02/17 10:53:13;;;;;;;0.45;0.35;;;;;;;;;;4993241;28;20558;-76
2023/02/17 10:55:45;;;;;;;2.78;0.50;;;;;;;;;;4999471;28;20050;-75
2023/02/17 10:58:20;;;;;;;1.02;0.70;;;;;;;;;;4981875;28;20061;-73
2023/02/17 11:00:48;;;;;;;;;;;;;;;;;;4992723;28;21678;-75
2023/02/17 11:03:20;;;;;;;1.38;0.60;;;;;;;;;;4997212;28;20450;-75
2023/02/17 11:05:54;;;;;;;6.13;1.63;;;;;;;;;;5010357;28;20051;-75
2023/02/17 11:08:29;;;;;;;0.60;0.60;;;;;;;;;;4989350;28;20137;-76
2023/02/17 11:11:01;;;;;;;2.13;0.40;;;;;;;;;;4988107;28;20065;-76
2023/02/17 11:13:37;;;;;;;0.98;0.80;;;;;;;;;;4999182;28;20046;-73
2023/02/17 11:16:06;;;;;;;2.05;0.90;;;;;;;;;;4994963;28;20046;-75
2023/02/17 11:18:36;;;;;;;2.60;0.50;;;;;;;;;;4987585;28;20057;-73
2023/02/17 11:21:06;;;;;;;0.17;0.17;;;;;;;;;;4982175;28;20408;-74
2023/02/17 11:23:35;;;;;;;3.30;1.05;;;;;;;;;;4988794;28;20183;-75
2023/02/17 11:26:09;;;;;;;0.77;0.60;;;;;;;;;;4994045;28;20412;-74
2023/02/17 11:28:39;;;;;;;0.88;0.55;;;;;;;;;;4992773;28;20050;-76
2023/02/17 11:31:08;;;;;;;1.50;0.70;;;;;;;;;;4986175;28;20057;-74
2023/02/17 11:33:37;;;;;;;2.65;1.25;;;;;;;;;;4990400;28;20042;-75
2023/02/17 11:36:06;;;;;;;0.68;0.28;;;;;;;;;;5002319;28;20110;-74
2023/02/17 11:38:42;;;;;;;0.40;0.40;;;;;;;;;;4987384;28;20046;-73
2023/02/17 11:41:11;;;;;;;1.95;0.60;;;;;;;;;;4986227;28;20054;-74
2023/02/17 11:43:51;;;;;;;0.90;0.90;;;;;;;;;;4980972;28;20052;-73
2023/02/17 11:46:23;;;;;;;4.43;0.50;;;;;;;;;;4977822;28;20080;-73
2023/02/17 11:48:58;;;;;;;1.17;0.40;;;;;;;;;;5005058;28;20075;-72
2023/02/17 11:51:30;;;;;;;1.45;0.65;;;;;;;;;;4990723;28;20117;-74
2023/02/17 11:54:04;;;;;;;0.88;0.60;;;;;;;;;;5005280;28;20057;-74
2023/02/17 11:56:35;;;;;;;1.17;0.95;;;;;;;;;;5003174;28;20180;-73
2023/02/17 11:59:19;;;;;;;0.95;0.35;;;;;;;;;;5001556;28;20120;-75
2023/02/17 12:01:59;;;;;;;1.05;0.50;;;;;;;;;;4988852;28;20060;-74
2023/02/17 12:04:28;;;;;;;0.10;0.10;;;;;;;;;;4992637;28;20046;-74
2023/02/17 12:07:15;;;;;;;9.10;0.90;;;;;;;;;;5000052;28;20132;-74
2023/02/17 12:09:47;;;;;;;2.08;0.50;;;;;;;;;;4984449;28;20133;-75
2023/02/17 12:12:20;;;;;;;0.13;0.13;;;;;;;;;;4987536;28;20443;-76
2023/02/17 12:14:56;;;;;;;0.20;0.20;;;;;;;;;;4997803;28;20480;-74
2023/02/17 12:17:31;;;;;;;3.28;0.55;;;;;;;;;;4986936;28;20081;-74
2023/02/17 12:20:10;;;;;;;0.75;0.45;;;;;;;;;;4991708;28;20073;-72
2023/02/17 12:22:43;;;;;;;0.43;0.35;;;;;;;;;;4985218;28;20061;-74
2023/02/17 12:25:24;;;;;;;0.57;0.50;;;;;;;;;;4992508;28;20050;-76
2023/02/17 12:28:11;;;;;;;1.60;1.10;;;;;;;;;;4990467;28;20053;-75
2023/02/17 12:30:47;;;;;;;0.70;0.70;;;;;;;;;;4989948;28;20509;-74
2023/02/17 12:33:20;;;;;;;2.08;0.93;;;;;;;;;;4984937;28;20050;-76
2023/02/17 12:35:51;;;;;;;7.70;1.05;;;;;;;;;;4990535;28;20046;-77
2023/02/17 12:38:25;;;;;;;1.23;0.50;;;;;;;;;;4980375;28;20047;-77
2023/02/17 12:40:55;;;;;;;0.38;0.30;;;;;;;;;;4982917;28;20055;-76
2023/02/17 12:43:26;;;;;;;5.70;0.82;;;;;;;;;;4989158;28;20050;-77
2023/02/17 12:45:57;;;;;;;0.70;0.70;;;;;;;;;;4991854;28;20054;-76
2023/02/17 12:48:29;;;;;;;1.50;1.35;;;;;;;;;;4991778;28;20572;-75
2023/02/17 12:51:01;;;;;;;5.50;0.80;;;;;;;;;;5003455;28;20046;-76
2023/02/17 12:53:35;;;;;;;3.53;0.70;;;;;;;;;;4982179;28;20054;-77
2023/02/17 12:56:04;;;;;;;1.27;0.50;;;;;;;;;;4984813;28;20515;-78
2023/02/17 12:58:34;;;;;;;2.05;0.80;;;;;;;;;;4990898;28;20046;-77
2023/02/17 13:01:07;;;;;;;0.32;0.32;;;;;;;;;;4988849;28;20054;-77
2023/02/17 13:03:37;;;;;;;0.67;0.57;;;;;;;;;;4980760;28;20042;-79
2023/02/17 13:06:12;;;;;;;2.10;0.95;;;;;;;;;;4981592;28;20600;-77
2023/02/17 13:08:40;;;;;;;;;;;;;;;;;;4976883;28;20050;-81
2023/02/17 13:11:12;;;;;;;0.85;0.40;;;;;;;;;;4988099;28;19937;-78
2023/02/17 13:13:40;;;;;;;0.65;0.50;;;;;;;;;;4990817;28;20062;-81
2023/02/17 13:16:12;;;;;;;0.73;0.47;;;;;;;;;;4982710;28;20046;-78
2023/02/17 13:18:42;;;;;;;0.50;0.40;;;;;;;;;;4976532;28;20038;-77
2023/02/17 13:21:19;;;;;;;1.00;0.45;;;;;;;;;;4991129;28;20491;-75
2023/02/17 13:23:59;;;;;;;0.75;0.60;;;;;;;;;;4976937;28;20062;-78
2023/02/17 13:26:29;;;;;;;0.40;0.38;;;;;;;;;;4983095;28;20097;-77
2023/02/17 13:29:17;;;;;;;1.58;0.80;;;;;;;;;;4978113;28;20058;-79
2023/02/17 13:31:52;;;;;;;2.30;0.60;;;;;;;;;;4994710;28;20455;-76
2023/02/17 13:34:25;;;;;;;2.15;0.47;;;;;;;;;;4979613;28;20043;-81
2023/02/17 13:36:53;;;;;;;0.63;0.32;;;;;;;;;;4983919;28;20058;-75
2023/02/17 13:39:33;;;;;;;6.45;0.63;;;;;;;;;;4978890;28;20374;-78
2023/02/17 13:42:02;;;;;;;2.97;0.63;;;;;;;;;;4982190;28;20046;-75
2023/02/17 13:44:33;;;;;;;0.90;0.40;;;;;;;;;;4980640;28;20047;-77
2023/02/17 13:47:04;;;;;;;0.75;0.40;;;;;;;;;;4974374;28;20066;-78
2023/02/17 13:49:34;;;;;;;1.85;0.70;;;;;;;;;;4979135;28;20097;-76
2023/02/17 13:52:17;;;;;;;4.25;0.40;;;;;;;;;;4979469;28;20096;-81
2023/02/17 13:54:52;;;;;;;0.45;0.40;;;;;;;;;;4983302;28;20047;-75
2023/02/17 13:57:25;;;;;;;0.22;0.22;;;;;;;;;;4974357;28;20471;-77
2023/02/17 13:59:53;;;;;;;0.90;0.40;;;;;;;;;;4978410;28;20725;-78
2023/02/17 14:02:23;;;;;;;1.05;0.40;;;;;;;;;;4992179;28;20143;-75
2023/02/17 14:05:10;;;;;;;0.30;0.30;;;;;;;;;;4986987;28;20503;-78
2023/02/17 14:07:38;;;;;;;0.85;0.45;;;;;;;;;;4979064;28;20116;-81
2023/02/17 14:10:17;;;;;;;0.65;0.45;;;;;;;;;;4986722;28;20065;-79
2023/02/17 14:12:47;;;;;;;0.60;0.60;;;;;;;;;;4987596;28;20053;-79
2023/02/17 14:15:16;;;;;;;3.15;0.57;;;;;;;;;;4979570;28;20054;-76
2023/02/17 14:17:46;;;;;;;0.57;0.38;;;;;;;;;;4989406;28;20437;-81
2023/02/17 14:20:28;;;;;;;0.40;0.30;;;;;;;;;;4986104;28;20046;-77
2023/02/17 14:23:00;;;;;;;4.22;0.43;;;;;;;;;;4978122;28;20082;-77
2023/02/17 14:25:33;;;;;;;3.53;0.70;;;;;;;;;;4983140;28;20050;-75
2023/02/17 14:28:01;;;;;;;0.50;0.50;;;;;;;;;;4986249;28;20055;-79
2023/02/17 14:30:31;;;;;;;1.02;0.70;;;;;;;;;;4973398;28;20074;-78
2023/02/17 14:33:06;;;;;;;0.25;0.25;;;;;;;;;;4995830;28;20124;-79
2023/02/17 14:35:34;;;;;;;1.38;1.08;;;;;;;;;;4984181;28;20054;-80
2023/02/17 14:38:09;;;;;;;0.38;0.30;;;;;;;;;;4985027;28;20130;-76
2023/02/17 14:40:38;;;;;;;5.30;0.73;;;;;;;;;;4986657;28;20104;-77
2023/02/17 14:43:07;;;;;;;1.08;0.40;;;;;;;;;;4975974;28;20054;-82
2023/02/17 14:45:36;;;;;;;0.30;0.30;;;;;;;;;;4985392;28;20101;-79
2023/02/17 14:48:06;;;;;;;2.53;0.75;;;;;;;;;;4986036;28;20133;-77
2023/02/17 14:50:40;;;;;;;0.40;0.40;;;;;;;;;;4982664;28;20267;-79
2023/02/17 14:53:12;;;;;;;1.40;1.05;;;;;;;;;;4985208;28;20403;-78
2023/02/17 14:55:44;;;;;;;5.18;1.10;;;;;;;;;;4983493;28;20054;-77
2023/02/17 14:58:18;;;;;;;0.30;0.30;;;;;;;;;;4989734;28;20090;-78
2023/02/17 15:00:47;;;;;;;0.45;0.45;;;;;;;;;;4974113;28;20054;-78
2023/02/17 15:03:17;;;;;;;0.63;0.30;;;;;;;;;;4990775;28;20048;-77
2023/02/17 15:05:45;;;;;;;0.80;0.68;;;;;;;;;;4985994;28;20062;-78
2023/02/17 15:08:15;;;;;;;1.40;0.40;;;;;;;;;;4991804;28;20112;-80
2023/02/17 15:10:44;;;;;;;0.43;0.38;;;;;;;;;;4989012;28;20575;-77
2023/02/17 15:13:14;;;;;;;2.15;0.40;;;;;;;;;;4997643;28;20057;-78